createdAt,value
2023-02-08T00:01:44.052Z,0.35
2023-02-08T00:04:10.442Z,0.34
2023-02-08T00:06:36.788Z,0.31
2023-02-08T00:09:03.772Z,0.30
2023-02-08T00:11:30.165Z,0.28
2023-02-08T00:13:56.534Z,0.25
2023-02-08T00:16:23.003Z,0.22
2023-02-08T00:18:49.448Z,0.22
2023-02-08T00:21:17.183Z,0.21
2023-02-08T00:23:44.092Z,0.18
2023-02-08T00:26:10.866Z,0.18
2023-02-08T00:28:37.373Z,0.17
2023-02-08T00:31:04.346Z,0.17
2023-02-08T00:33:30.917Z,0.18
2023-02-08T00:36:06.007Z,0.19
2023-02-08T00:38:32.433Z,0.18
2023-02-08T00:40:58.774Z,0.17
2023-02-08T00:43:25.392Z,0.16
2023-02-08T00:45:56.123Z,0.15
2023-02-08T00:48:22.586Z,0.14
2023-02-08T00:50:58.201Z,0.14
2023-02-08T00:53:24.760Z,0.13
2023-02-08T00:55:55.166Z,0.13
2023-02-08T00:58:22.696Z,0.12
2023-02-08T01:00:52.510Z,0.12
2023-02-08T01:03:20.212Z,0.10
2023-02-08T01:05:46.732Z,0.08
2023-02-08T01:08:13.178Z,0.07
2023-02-08T01:10:39.864Z,0.05
2023-02-08T01:13:06.443Z,0.02
2023-02-08T01:15:33.091Z,-0.01
2023-02-08T01:17:59.630Z,-0.03
2023-02-08T01:20:26.068Z,-0.05
2023-02-08T01:22:52.699Z,-0.09
2023-02-08T01:25:19.189Z,-0.11
2023-02-08T01:27:45.597Z,-0.14
2023-02-08T01:30:12.656Z,-0.16
2023-02-08T01:32:39.085Z,-0.19
2023-02-08T01:35:05.898Z,-0.20
2023-02-08T01:37:32.266Z,-0.21
2023-02-08T01:39:58.687Z,-0.21
2023-02-08T01:42:25.234Z,-0.19
2023-02-08T01:45:17.581Z,-0.16
2023-02-08T01:47:47.033Z,-0.13
2023-02-08T01:50:15.554Z,-0.11
2023-02-08T01:52:44.566Z,-0.09
2023-02-08T01:55:38.514Z,-0.08
2023-02-08T01:58:08.993Z,-0.07
2023-02-08T02:00:35.588Z,-0.07
2023-02-08T02:03:04.705Z,-0.08
2023-02-08T02:05:38.208Z,-0.08
2023-02-08T02:08:05.034Z,-0.08
2023-02-08T02:10:34.234Z,-0.10
2023-02-08T02:13:09.337Z,-0.10
2023-02-08T02:15:35.999Z,-0.10
2023-02-08T02:18:04.958Z,-0.12
2023-02-08T02:20:45.160Z,-0.13
2023-02-08T02:23:30.335Z,-0.15
2023-02-08T02:26:25.150Z,-0.15
2023-02-08T02:29:09.920Z,-0.16
2023-02-08T02:31:59.831Z,-0.18
2023-02-08T02:34:34.842Z,-0.18
2023-02-08T02:37:04.156Z,-0.20
2023-02-08T02:39:41.629Z,-0.21
2023-02-08T02:42:26.963Z,-0.24
2023-02-08T02:45:10.301Z,-0.26
2023-02-08T02:47:53.525Z,-0.28
2023-02-08T02:51:02.595Z,-0.32
2023-02-08T02:53:34.013Z,-0.35
2023-02-08T02:56:12.241Z,-0.36
2023-02-08T02:58:40.920Z,-0.38
2023-02-08T03:01:07.438Z,-0.39
2023-02-08T03:03:34.960Z,-0.40
2023-02-08T03:06:06.266Z,-0.41
2023-02-08T03:08:55.920Z,-0.41
2023-02-08T03:11:26.471Z,-0.41
2023-02-08T03:14:12.692Z,-0.42
2023-02-08T03:17:02.430Z,-0.45
2023-02-08T03:19:53.287Z,-0.46
2023-02-08T03:22:34.949Z,-0.50
2023-02-08T03:25:31.325Z,-0.53
2023-02-08T03:28:11.036Z,-0.54
2023-02-08T03:30:53.559Z,-0.57
2023-02-08T03:33:36.768Z,-0.58
2023-02-08T03:36:08.664Z,-0.59
2023-02-08T03:38:41.378Z,-0.61
2023-02-08T03:41:11.781Z,-0.62
2023-02-08T03:43:44.917Z,-0.63
2023-02-08T03:46:24.661Z,-0.62
2023-02-08T03:49:05.172Z,-0.62
2023-02-08T03:51:34.390Z,-0.60
2023-02-08T03:54:05.793Z,-0.58
2023-02-08T03:56:41.776Z,-0.58
2023-02-08T03:59:18.321Z,-0.54
2023-02-08T04:01:49.870Z,-0.52
2023-02-08T04:04:20.236Z,-0.53
2023-02-08T04:06:46.711Z,-0.53
2023-02-08T04:09:13.236Z,-0.53
2023-02-08T04:11:39.660Z,-0.53
2023-02-08T04:14:06.053Z,-0.53
2023-02-08T04:16:32.431Z,-0.53
2023-02-08T04:18:58.861Z,-0.53
2023-02-08T04:21:25.388Z,-0.53
2023-02-08T04:23:51.832Z,-0.54
2023-02-08T04:26:18.271Z,-0.55
2023-02-08T04:28:44.955Z,-0.55
2023-02-08T04:31:11.537Z,-0.56
2023-02-08T04:33:38.032Z,-0.56
2023-02-08T04:36:04.985Z,-0.58
2023-02-08T04:38:31.457Z,-0.59
2023-02-08T04:40:57.983Z,-0.61
2023-02-08T04:43:24.421Z,-0.64
2023-02-08T04:45:51.268Z,-0.65
2023-02-08T04:48:18.778Z,-0.67
2023-02-08T04:50:45.251Z,-0.69
2023-02-08T04:53:15.074Z,-0.69
2023-02-08T04:55:41.542Z,-0.71
2023-02-08T04:58:08.018Z,-0.71
2023-02-08T05:00:34.486Z,-0.73
2023-02-08T05:03:00.969Z,-0.74
2023-02-08T05:05:28.399Z,-0.75
2023-02-08T05:07:54.849Z,-0.76
2023-02-08T05:10:21.596Z,-0.78
2023-02-08T05:12:48.197Z,-0.80
2023-02-08T05:15:14.902Z,-0.83
2023-02-08T05:17:41.397Z,-0.86
2023-02-08T05:20:08.896Z,-0.90
2023-02-08T05:22:35.622Z,-0.93
2023-02-08T05:25:02.449Z,-0.95
2023-02-08T05:27:28.986Z,-0.96
2023-02-08T05:29:57.129Z,-0.98
2023-02-08T05:32:25.165Z,-1.00
2023-02-08T05:34:51.585Z,-1.00
2023-02-08T05:37:18.016Z,-1.03
2023-02-08T05:39:44.535Z,-1.05
2023-02-08T05:42:11.397Z,-1.06
2023-02-08T05:44:38.253Z,-1.08
2023-02-08T05:47:05.004Z,-1.10
2023-02-08T05:49:31.504Z,-1.11
2023-02-08T05:52:00.589Z,-1.12
2023-02-08T05:54:27.453Z,-1.15
2023-02-08T05:56:54.270Z,-1.15
2023-02-08T05:59:20.786Z,-1.18
2023-02-08T06:05:02.369Z,-1.21
2023-02-08T06:07:29.687Z,-1.23
2023-02-08T06:09:56.063Z,-1.24
2023-02-08T06:12:22.390Z,-1.26
2023-02-08T06:14:48.835Z,-1.26
2023-02-08T06:17:15.316Z,-1.29
2023-02-08T06:19:41.640Z,-1.31
2023-02-08T06:22:07.996Z,-1.32
2023-02-08T06:24:34.358Z,-1.33
2023-02-08T06:27:00.732Z,-1.33
2023-02-08T06:29:27.107Z,-1.33
2023-02-08T06:31:53.615Z,-1.36
2023-02-08T06:34:20.151Z,-1.37
2023-02-08T06:36:46.670Z,-1.38
2023-02-08T06:39:13.067Z,-1.41
2023-02-08T06:41:39.496Z,-1.41
2023-02-08T06:44:05.884Z,-1.43
2023-02-08T06:46:32.298Z,-1.43
2023-02-08T06:49:00.250Z,-1.42
2023-02-08T06:51:27.411Z,-1.43
2023-02-08T06:53:53.827Z,-1.42
2023-02-08T06:56:20.212Z,-1.43
2023-02-08T06:58:46.706Z,-1.42
2023-02-08T07:01:14.230Z,-1.41
2023-02-08T07:03:41.267Z,-1.41
2023-02-08T07:06:19.336Z,-1.39
2023-02-08T07:08:47.036Z,-1.36
2023-02-08T07:11:18.633Z,-1.34
2023-02-08T07:13:47.821Z,-1.30
2023-02-08T07:16:14.669Z,-1.28
2023-02-08T07:18:41.222Z,-1.25
2023-02-08T07:21:07.732Z,-1.22
2023-02-08T07:23:34.391Z,-1.20
2023-02-08T07:26:04.078Z,-1.19
2023-02-08T07:28:30.869Z,-1.14
2023-02-08T07:30:57.800Z,-1.14
2023-02-08T07:33:25.118Z,-1.10
2023-02-08T07:35:51.577Z,-1.05
2023-02-08T07:38:20.599Z,-1.02
2023-02-08T07:40:47.168Z,-0.97
2023-02-08T07:43:13.512Z,-0.92
2023-02-08T07:45:40.539Z,-0.84
2023-02-08T07:48:07.073Z,-0.76
2023-02-08T07:50:33.516Z,-0.70
2023-02-08T07:52:59.921Z,-0.62
2023-02-08T07:55:27.542Z,-0.54
2023-02-08T07:57:56.717Z,-0.46
2023-02-08T08:00:23.551Z,-0.38
2023-02-08T08:02:51.058Z,-0.30
2023-02-08T08:05:17.457Z,-0.21
2023-02-08T08:07:43.856Z,-0.13
2023-02-08T08:10:10.304Z,-0.03
2023-02-08T08:12:36.669Z,0.07
2023-02-08T08:15:03.220Z,0.18
2023-02-08T08:17:30.128Z,0.29
2023-02-08T08:19:56.619Z,0.39
2023-02-08T08:22:22.985Z,0.51
2023-02-08T08:24:49.384Z,0.62
2023-02-08T08:27:15.830Z,0.74
2023-02-08T08:29:42.249Z,0.85
2023-02-08T08:32:11.501Z,0.95
2023-02-08T08:34:38.186Z,1.08
2023-02-08T08:37:04.561Z,1.19
2023-02-08T08:39:32.032Z,1.28
2023-02-08T08:41:59.906Z,1.40
2023-02-08T08:44:26.615Z,1.50
2023-02-08T08:47:00.601Z,1.62
2023-02-08T08:49:28.419Z,1.73
2023-02-08T08:51:55.783Z,1.84
2023-02-08T08:54:22.402Z,1.93
2023-02-08T08:56:48.899Z,2.04
2023-02-08T08:59:15.286Z,2.14
2023-02-08T09:01:42.681Z,2.24
2023-02-08T09:04:10.147Z,2.34
2023-02-08T09:06:36.628Z,2.42
2023-02-08T09:09:03.567Z,2.51
2023-02-08T09:11:30.282Z,2.59
2023-02-08T09:13:56.665Z,2.68
2023-02-08T09:16:24.501Z,2.77
2023-02-08T09:18:51.088Z,2.85
2023-02-08T09:21:20.086Z,2.93
2023-02-08T09:23:49.829Z,3.01
2023-02-08T09:26:18.582Z,3.08
2023-02-08T09:28:45.191Z,3.17
2023-02-08T09:31:18.482Z,3.26
2023-02-08T09:33:44.949Z,3.34
2023-02-08T09:36:11.367Z,3.41
2023-02-08T09:38:38.466Z,3.49
2023-02-08T09:41:24.758Z,3.59
2023-02-08T09:44:13.018Z,3.66
2023-02-08T09:46:45.163Z,3.74
2023-02-08T09:49:20.012Z,3.81
2023-02-08T09:51:59.744Z,3.90
2023-02-08T09:54:39.392Z,3.96
2023-02-08T09:57:14.156Z,4.06
2023-02-08T10:00:12.429Z,4.12
2023-02-08T10:02:41.434Z,4.20
2023-02-08T10:05:16.766Z,4.27
2023-02-08T10:07:43.428Z,4.34
2023-02-08T10:10:33.405Z,4.42
2023-02-08T10:13:08.517Z,4.52
2023-02-08T10:15:51.514Z,4.60
2023-02-08T10:18:57.209Z,4.71
2023-02-08T10:21:42.136Z,4.80
2023-02-08T10:24:30.704Z,4.90
2023-02-08T10:27:10.628Z,4.98
2023-02-08T10:29:52.156Z,5.06
2023-02-08T10:32:51.527Z,5.14
2023-02-08T10:35:26.522Z,5.22
2023-02-08T10:37:54.040Z,5.30
2023-02-08T10:40:35.932Z,5.39
2023-02-08T10:43:32.641Z,5.46
2023-02-08T10:46:05.260Z,5.58
2023-02-08T10:48:50.254Z,5.65
2023-02-08T10:51:18.766Z,5.72
2023-02-08T10:53:46.148Z,5.78
2023-02-08T10:56:41.735Z,5.87
2023-02-08T10:59:21.826Z,5.95
2023-02-08T11:01:50.234Z,6.02
2023-02-08T11:04:18.197Z,6.09
2023-02-08T11:06:45.902Z,6.14
2023-02-08T11:09:31.517Z,6.23
2023-02-08T11:12:00.508Z,6.30
2023-02-08T11:14:45.613Z,6.36
2023-02-08T11:17:28.787Z,6.44
2023-02-08T11:19:58.509Z,6.51
2023-02-08T11:22:27.682Z,6.57
2023-02-08T11:24:57.849Z,6.64
2023-02-08T11:27:33.964Z,6.70
2023-02-08T11:30:09.316Z,6.76
2023-02-08T11:32:36.740Z,6.81
2023-02-08T11:35:21.785Z,6.88
2023-02-08T11:37:50.122Z,6.92
2023-02-08T11:40:22.592Z,6.99
2023-02-08T11:42:49.849Z,7.03
2023-02-08T11:45:22.445Z,7.11
2023-02-08T11:47:50.173Z,7.17
2023-02-08T11:50:31.952Z,7.25
2023-02-08T11:53:01.306Z,7.31
2023-02-08T11:55:32.096Z,7.38
2023-02-08T11:58:02.130Z,7.44
2023-02-08T12:00:43.701Z,7.53
2023-02-08T12:03:18.323Z,7.58
2023-02-08T12:05:56.010Z,7.66
2023-02-08T12:08:36.699Z,7.71
2023-02-08T12:11:12.108Z,7.77
2023-02-08T12:13:59.849Z,7.83
2023-02-08T12:16:55.675Z,7.90
2023-02-08T12:19:57.921Z,7.98
2023-02-08T12:22:29.458Z,8.03
2023-02-08T12:25:18.375Z,8.08
2023-02-08T12:28:00.798Z,8.11
2023-02-08T12:30:59.367Z,8.18
2023-02-08T12:33:44.781Z,8.24
2023-02-08T12:36:34.103Z,8.30
2023-02-08T12:39:26.034Z,8.36
2023-02-08T12:41:52.696Z,8.40
2023-02-08T12:44:56.464Z,8.46
2023-02-08T12:47:39.387Z,8.51
2023-02-08T12:50:26.729Z,8.55
2023-02-08T12:53:00.865Z,8.60
2023-02-08T12:55:35.442Z,8.64
2023-02-08T12:58:26.588Z,8.67
2023-02-08T13:00:55.222Z,8.69
2023-02-08T13:03:24.342Z,8.72
2023-02-08T13:06:02.166Z,8.74
2023-02-08T13:08:50.278Z,8.79
2023-02-08T13:11:30.100Z,8.82
2023-02-08T13:14:34.181Z,8.86
2023-02-08T13:17:39.327Z,8.90
2023-02-08T13:20:05.837Z,8.93
2023-02-08T13:22:37.256Z,8.96
2023-02-08T13:25:08.455Z,8.99
2023-02-08T13:27:35.391Z,9.02
2023-02-08T13:30:02.465Z,9.05
2023-02-08T13:32:50.864Z,9.10
2023-02-08T13:35:23.721Z,9.14
2023-02-08T13:38:03.083Z,9.17
2023-02-08T13:40:35.485Z,9.21
2023-02-08T13:43:34.813Z,9.23
2023-02-08T13:46:02.689Z,9.26
2023-02-08T13:48:45.817Z,9.29
2023-02-08T13:51:33.387Z,9.31
2023-02-08T13:54:00.216Z,9.32
2023-02-08T13:56:40.558Z,9.35
2023-02-08T13:59:25.870Z,9.37
2023-02-08T14:02:19.092Z,9.38
2023-02-08T14:04:47.532Z,9.39
2023-02-08T14:07:14.244Z,9.39
2023-02-08T14:09:49.546Z,9.41
2023-02-08T14:12:21.329Z,9.42
2023-02-08T14:15:05.868Z,9.45
2023-02-08T14:17:32.915Z,9.45
2023-02-08T14:20:06.110Z,9.46
2023-02-08T14:22:40.611Z,9.46
2023-02-08T14:25:18.295Z,9.48
2023-02-08T14:28:03.203Z,9.48
2023-02-08T14:30:36.134Z,9.50
2023-02-08T14:33:07.229Z,9.48
2023-02-08T14:35:37.659Z,9.48
2023-02-08T14:38:19.042Z,9.48
2023-02-08T14:40:49.690Z,9.48
2023-02-08T14:43:18.792Z,9.47
2023-02-08T14:45:55.632Z,9.47
2023-02-08T14:48:35.109Z,9.45
2023-02-08T14:51:08.813Z,9.44
2023-02-08T14:53:54.004Z,9.42
2023-02-08T14:56:30.982Z,9.40
2023-02-08T14:59:01.538Z,9.38
2023-02-08T15:01:27.824Z,9.36
2023-02-08T15:04:02.150Z,9.33
2023-02-08T15:06:38.075Z,9.32
2023-02-08T15:09:12.343Z,9.29
2023-02-08T15:11:40.435Z,9.27
2023-02-08T15:14:07.291Z,9.25
2023-02-08T15:16:41.429Z,9.20
2023-02-08T15:19:09.440Z,9.15
2023-02-08T15:21:40.892Z,9.12
2023-02-08T15:24:19.188Z,9.08
2023-02-08T15:26:53.769Z,9.05
2023-02-08T15:29:42.898Z,9.01
2023-02-08T15:32:16.324Z,8.97
2023-02-08T15:34:44.533Z,8.92
2023-02-08T15:37:18.301Z,8.89
2023-02-08T15:39:48.918Z,8.86
2023-02-08T15:42:24.331Z,8.81
2023-02-08T15:44:51.819Z,8.75
2023-02-08T15:47:42.010Z,8.71
2023-02-08T15:50:18.007Z,8.66
2023-02-08T15:52:44.904Z,8.60
2023-02-08T15:55:17.928Z,8.55
2023-02-08T15:57:58.525Z,8.48
2023-02-08T16:00:31.470Z,8.43
2023-02-08T16:03:20.470Z,8.35
2023-02-08T16:06:02.884Z,8.28
2023-02-08T16:08:40.214Z,8.21
2023-02-08T16:11:20.427Z,8.16
2023-02-08T16:13:49.722Z,8.09
2023-02-08T16:16:16.261Z,8.03
2023-02-08T16:18:50.008Z,7.98
2023-02-08T16:21:35.144Z,7.91
2023-02-08T16:24:19.026Z,7.84
2023-02-08T16:26:58.875Z,7.79
2023-02-08T16:29:28.691Z,7.70
2023-02-08T16:32:03.553Z,7.62
2023-02-08T16:34:32.254Z,7.56
2023-02-08T16:36:59.661Z,7.46
2023-02-08T16:39:51.418Z,7.40
2023-02-08T16:42:30.135Z,7.32
2023-02-08T16:45:01.315Z,7.23
2023-02-08T16:47:42.624Z,7.14
2023-02-08T16:50:15.653Z,7.04
2023-02-08T16:52:42.257Z,6.95
2023-02-08T16:55:17.362Z,6.88
2023-02-08T16:57:47.961Z,6.80
2023-02-08T17:00:18.353Z,6.72
2023-02-08T17:02:44.946Z,6.66
2023-02-08T17:05:11.997Z,6.58
2023-02-08T17:07:38.715Z,6.50
2023-02-08T17:10:07.862Z,6.44
2023-02-08T17:12:34.311Z,6.37
2023-02-08T17:15:00.820Z,6.29
2023-02-08T17:17:27.691Z,6.22
2023-02-08T17:19:54.046Z,6.15
2023-02-08T17:22:20.397Z,6.08
2023-02-08T17:24:46.731Z,6.01
2023-02-08T17:27:14.159Z,5.95
2023-02-08T17:29:41.454Z,5.87
2023-02-08T17:32:07.884Z,5.80
2023-02-08T17:34:35.707Z,5.73
2023-02-08T17:37:02.677Z,5.65
2023-02-08T17:39:29.141Z,5.58
2023-02-08T17:41:55.497Z,5.52
2023-02-08T17:44:21.833Z,5.46
2023-02-08T17:46:48.230Z,5.40
2023-02-08T17:49:16.221Z,5.35
2023-02-08T17:51:42.602Z,5.28
2023-02-08T17:54:11.128Z,5.22
2023-02-08T17:56:37.772Z,5.18
2023-02-08T17:59:05.301Z,5.13
2023-02-08T18:01:32.248Z,5.09
2023-02-08T18:03:59.487Z,5.04
2023-02-08T18:06:26.292Z,4.99
2023-02-08T18:08:54.687Z,4.96
2023-02-08T18:11:23.214Z,4.91
2023-02-08T18:13:51.927Z,4.88
2023-02-08T18:16:26.913Z,4.84
2023-02-08T18:18:57.766Z,4.81
2023-02-08T18:21:30.142Z,4.77
2023-02-08T18:23:56.487Z,4.75
2023-02-08T18:26:25.107Z,4.72
2023-02-08T18:28:52.343Z,4.69
2023-02-08T18:31:20.519Z,4.67
2023-02-08T18:33:49.232Z,4.64
2023-02-08T18:36:16.916Z,4.61
2023-02-08T18:38:45.604Z,4.58
2023-02-08T18:41:18.589Z,4.57
2023-02-08T18:43:45.694Z,4.54
2023-02-08T18:46:14.447Z,4.52
2023-02-08T18:48:42.104Z,4.50
2023-02-08T18:51:10.634Z,4.48
2023-02-08T18:53:39.785Z,4.47
2023-02-08T18:56:07.753Z,4.44
2023-02-08T18:58:34.691Z,4.41
2023-02-08T19:01:16.183Z,4.38
2023-02-08T19:03:44.745Z,4.34
2023-02-08T19:06:14.409Z,4.33
2023-02-08T19:08:41.640Z,4.29
2023-02-08T19:11:18.628Z,4.27
2023-02-08T19:13:45.550Z,4.23
2023-02-08T19:16:13.019Z,4.20
2023-02-08T19:18:40.304Z,4.16
2023-02-08T19:21:09.580Z,4.12
2023-02-08T19:23:36.345Z,4.09
2023-02-08T19:26:05.306Z,4.05
2023-02-08T19:28:35.849Z,4.01
2023-02-08T19:31:10.821Z,3.96
2023-02-08T19:33:42.765Z,3.92
2023-02-08T19:36:20.346Z,3.88
2023-02-08T19:38:50.320Z,3.83
2023-02-08T19:41:23.740Z,3.79
2023-02-08T19:43:51.719Z,3.75
2023-02-08T19:46:22.193Z,3.72
2023-02-08T19:48:53.927Z,3.69
2023-02-08T19:51:20.608Z,3.65
2023-02-08T19:53:47.529Z,3.63
2023-02-08T19:56:18.807Z,3.60
2023-02-08T19:58:46.721Z,3.58
2023-02-08T20:01:18.972Z,3.56
2023-02-08T20:03:46.380Z,3.55
2023-02-08T20:06:15.268Z,3.54
2023-02-08T20:08:41.726Z,3.50
2023-02-08T20:11:16.679Z,3.50
2023-02-08T20:13:43.147Z,3.49
2023-02-08T20:16:09.569Z,3.47
2023-02-08T20:18:35.940Z,3.45
2023-02-08T20:21:03.070Z,3.43
2023-02-08T20:23:30.422Z,3.42
2023-02-08T20:26:05.457Z,3.41
2023-02-08T20:28:31.801Z,3.38
2023-02-08T20:30:58.389Z,3.36
2023-02-08T20:33:24.870Z,3.33
2023-02-08T20:35:51.293Z,3.30
2023-02-08T20:38:17.722Z,3.27
2023-02-08T20:40:44.376Z,3.24
2023-02-08T20:43:10.901Z,3.23
2023-02-08T20:45:40.782Z,3.20
2023-02-08T20:48:07.235Z,3.17
2023-02-08T20:50:34.085Z,3.14
2023-02-08T20:53:00.439Z,3.12
2023-02-08T20:55:27.065Z,3.10
2023-02-08T20:57:53.417Z,3.05
2023-02-08T21:00:40.126Z,3.03
2023-02-08T21:03:12.837Z,3.01
2023-02-08T21:05:39.673Z,2.98
2023-02-08T21:08:06.008Z,2.94
2023-02-08T21:10:35.971Z,2.91
2023-02-08T21:13:02.405Z,2.88
2023-02-08T21:15:28.845Z,2.85
2023-02-08T21:17:55.305Z,2.80
2023-02-08T21:20:21.707Z,2.78
2023-02-08T21:22:48.090Z,2.76
2023-02-08T21:25:14.549Z,2.73
2023-02-08T21:27:41.067Z,2.71
2023-02-08T21:30:08.124Z,2.67
2023-02-08T21:32:34.512Z,2.64
2023-02-08T21:35:00.864Z,2.61
2023-02-08T21:37:27.188Z,2.58
2023-02-08T21:39:53.577Z,2.54
2023-02-08T21:42:19.993Z,2.53
2023-02-08T21:44:46.335Z,2.49
2023-02-08T21:47:12.669Z,2.46
2023-02-08T21:49:57.608Z,2.42
2023-02-08T21:52:42.401Z,2.37
2023-02-08T21:55:08.752Z,2.33
2023-02-08T21:57:39.785Z,2.30
2023-02-08T22:00:08.278Z,2.25
2023-02-08T22:02:34.691Z,2.20
2023-02-08T22:05:02.053Z,2.17
2023-02-08T22:07:29.134Z,2.14
2023-02-08T22:09:55.579Z,2.11
2023-02-08T22:12:23.289Z,2.10
2023-02-08T22:14:51.063Z,2.05
2023-02-08T22:17:18.021Z,2.03
2023-02-08T22:19:44.452Z,2.00
2023-02-08T22:22:11.893Z,1.97
2023-02-08T22:24:38.367Z,1.93
2023-02-08T22:27:05.032Z,1.89
2023-02-08T22:29:31.464Z,1.87
2023-02-08T22:31:58.030Z,1.83
2023-02-08T22:34:26.682Z,1.80
2023-02-08T22:36:53.296Z,1.77
2023-02-08T22:39:19.767Z,1.72
2023-02-08T22:41:46.143Z,1.70
2023-02-08T22:44:12.819Z,1.66
2023-02-08T22:46:39.208Z,1.64
2023-02-08T22:49:05.557Z,1.60
2023-02-08T22:51:31.976Z,1.58
2023-02-08T22:53:58.528Z,1.54
2023-02-08T22:56:24.876Z,1.52
2023-02-08T22:58:51.245Z,1.49
2023-02-08T23:01:17.940Z,1.47
2023-02-08T23:03:44.362Z,1.44
2023-02-08T23:06:14.796Z,1.42
2023-02-08T23:08:42.560Z,1.41
2023-02-08T23:11:12.176Z,1.39
2023-02-08T23:13:38.567Z,1.36
2023-02-08T23:16:05.292Z,1.36
2023-02-08T23:18:31.689Z,1.33
2023-02-08T23:20:58.047Z,1.31
2023-02-08T23:23:24.525Z,1.28
2023-02-08T23:25:50.857Z,1.29
2023-02-08T23:28:17.307Z,1.26
2023-02-08T23:30:44.465Z,1.24
2023-02-08T23:33:11.051Z,1.23
2023-02-08T23:35:41.608Z,1.21
2023-02-08T23:38:08.648Z,1.19
2023-02-08T23:40:35.152Z,1.17
2023-02-08T23:43:01.592Z,1.14
2023-02-08T23:45:28.646Z,1.12
2023-02-08T23:47:55.018Z,1.09
2023-02-08T23:50:21.336Z,1.08
2023-02-08T23:52:47.718Z,1.05
2023-02-08T23:55:14.308Z,1.00
2023-02-08T23:57:40.736Z,0.98
